createdAt,value
2018-03-26T00:00:48.670Z,82.50
2018-03-26T00:01:48.693Z,83.70
2018-03-26T00:02:48.713Z,81.30
2018-03-26T00:03:48.735Z,89.50
2018-03-26T00:04:48.759Z,86.70
2018-03-26T00:05:48.777Z,89.70
2018-03-26T00:06:48.789Z,87.60
2018-03-26T00:07:48.818Z,88.70
2018-03-26T00:08:48.828Z,86.00
2018-03-26T00:09:48.857Z,88.30
2018-03-26T00:10:48.873Z,85.70
2018-03-26T00:11:48.896Z,90.20
2018-03-26T00:12:48.907Z,86.50
2018-03-26T00:13:48.934Z,85.20
2018-03-26T00:14:48.950Z,87.20
2018-03-26T00:15:48.965Z,85.20
2018-03-26T00:16:48.992Z,89.20
2018-03-26T00:17:49.007Z,84.60
2018-03-26T00:18:49.024Z,88.80
2018-03-26T00:19:49.052Z,86.60
2018-03-26T00:20:49.064Z,85.60
2018-03-26T00:21:49.128Z,87.00
2018-03-26T00:22:49.104Z,85.80
2018-03-26T00:23:49.123Z,90.00
2018-03-26T00:24:49.143Z,89.30
2018-03-26T00:25:49.161Z,85.60
2018-03-26T00:26:49.189Z,88.30
2018-03-26T00:27:49.205Z,86.60
2018-03-26T00:28:49.222Z,93.30
2018-03-26T00:29:49.247Z,87.00
2018-03-26T00:30:49.260Z,88.90
2018-03-26T00:31:49.281Z,88.90
2018-03-26T00:32:49.302Z,89.00
2018-03-26T00:33:49.322Z,85.80
2018-03-26T00:34:49.363Z,87.40
2018-03-26T00:35:49.363Z,86.40
2018-03-26T00:36:49.377Z,90.30
2018-03-26T00:37:49.397Z,93.80
2018-03-26T00:38:49.421Z,88.50
2018-03-26T00:39:49.436Z,88.80
2018-03-26T00:40:49.454Z,88.90
2018-03-26T00:41:49.480Z,88.40
2018-03-26T00:42:49.492Z,89.60
2018-03-26T00:43:49.520Z,88.90
2018-03-26T00:44:49.531Z,88.30
2018-03-26T00:45:49.550Z,90.70
2018-03-26T00:46:49.578Z,88.00
2018-03-26T00:47:49.590Z,84.60
2018-03-26T00:48:49.616Z,86.80
2018-03-26T00:49:49.642Z,85.50
2018-03-26T00:50:49.651Z,91.00
2018-03-26T00:51:49.675Z,88.30
2018-03-26T00:52:49.690Z,93.50
2018-03-26T00:53:49.705Z,86.30
2018-03-26T00:54:49.733Z,90.80
2018-03-26T00:55:49.750Z,88.00
2018-03-26T00:56:49.765Z,87.10
2018-03-26T00:57:49.783Z,84.50
2018-03-26T00:58:49.810Z,84.60
2018-03-26T00:59:49.827Z,88.80
2018-03-26T01:00:49.845Z,84.30
2018-03-26T01:01:49.868Z,84.80
2018-03-26T01:02:49.880Z,83.60
2018-03-26T01:03:49.903Z,85.70
2018-03-26T01:04:49.923Z,83.90
2018-03-26T01:05:49.946Z,86.70
2018-03-26T01:06:49.960Z,89.90
2018-03-26T01:07:49.985Z,82.70
2018-03-26T01:08:50.004Z,83.20
2018-03-26T01:09:50.025Z,86.80
2018-03-26T01:10:50.040Z,84.40
2018-03-26T01:11:50.063Z,84.60
2018-03-26T01:12:50.073Z,83.60
2018-03-26T01:13:50.105Z,79.90
2018-03-26T01:14:50.113Z,78.10
2018-03-26T01:15:50.134Z,80.50
2018-03-26T01:16:50.154Z,76.80
2018-03-26T01:17:50.170Z,81.20
2018-03-26T01:18:50.197Z,83.60
2018-03-26T01:19:50.214Z,86.10
2018-03-26T01:20:50.229Z,80.80
2018-03-26T01:21:50.249Z,85.70
2018-03-26T01:22:50.272Z,80.50
2018-03-26T01:23:50.288Z,86.40
2018-03-26T01:24:50.309Z,86.30
2018-03-26T01:25:50.329Z,80.30
2018-03-26T01:26:50.345Z,81.00
2018-03-26T01:27:50.368Z,81.30
2018-03-26T01:28:50.383Z,83.60
2018-03-26T01:29:50.408Z,80.50
2018-03-26T01:30:50.422Z,83.80
2018-03-26T01:31:50.439Z,80.90
2018-03-26T01:32:50.465Z,82.20
2018-03-26T01:33:50.488Z,85.20
2018-03-26T01:34:50.496Z,84.30
2018-03-26T01:35:50.524Z,80.20
2018-03-26T01:36:50.534Z,84.80
2018-03-26T01:37:50.554Z,83.90
2018-03-26T01:38:50.581Z,82.40
2018-03-26T01:39:50.593Z,84.90
2018-03-26T01:40:50.619Z,79.70
2018-03-26T01:41:50.639Z,83.80
2018-03-26T01:42:50.650Z,84.80
2018-03-26T01:43:50.678Z,78.80
2018-03-26T01:44:50.688Z,85.10
2018-03-26T01:45:50.709Z,84.00
2018-03-26T01:46:50.735Z,80.30
2018-03-26T01:47:50.754Z,81.60
2018-03-26T01:48:50.764Z,77.90
2018-03-26T01:49:50.784Z,89.20
2018-03-26T01:50:50.812Z,84.80
2018-03-26T01:51:50.823Z,82.30
2018-03-26T01:52:50.849Z,80.50
2018-03-26T01:53:50.863Z,83.10
2018-03-26T01:54:50.881Z,79.50
2018-03-26T01:55:50.908Z,85.20
2018-03-26T01:56:50.918Z,82.60
2018-03-26T01:57:50.943Z,80.80
2018-03-26T01:58:50.959Z,84.60
2018-03-26T01:59:50.976Z,80.10
2018-03-26T02:00:50.998Z,79.60
2018-03-26T02:01:51.013Z,79.70
2018-03-26T02:02:51.054Z,83.40
2018-03-26T02:03:51.059Z,80.90
2018-03-26T02:04:51.074Z,76.80
2018-03-26T02:05:51.098Z,81.20
2018-03-26T02:06:51.110Z,83.20
2018-03-26T02:07:51.133Z,80.90
2018-03-26T02:08:51.153Z,83.70
2018-03-26T02:09:51.175Z,81.90
2018-03-26T02:10:51.194Z,80.70
2018-03-26T02:11:51.205Z,83.50
2018-03-26T02:12:51.226Z,81.30
2018-03-26T02:13:51.247Z,80.00
2018-03-26T02:14:51.269Z,82.40
2018-03-26T02:15:51.285Z,76.50
2018-03-26T02:16:51.306Z,82.70
2018-03-26T02:17:51.328Z,79.20
2018-03-26T02:18:51.338Z,81.70
2018-03-26T02:19:51.362Z,81.50
2018-03-26T02:20:51.383Z,81.30
2018-03-26T02:21:51.395Z,82.30
2018-03-26T02:22:51.425Z,81.10
2018-03-26T02:23:51.441Z,79.00
2018-03-26T02:24:51.457Z,78.20
2018-03-26T02:25:51.475Z,77.70
2018-03-26T02:26:51.497Z,75.10
2018-03-26T02:27:51.516Z,77.30
2018-03-26T02:28:51.535Z,79.90
2018-03-26T02:29:51.555Z,78.40
2018-03-26T02:30:51.570Z,79.80
2018-03-26T02:31:51.594Z,76.70
2018-03-26T02:32:51.610Z,73.70
2018-03-26T02:33:51.626Z,76.40
2018-03-26T02:34:51.654Z,77.50
2018-03-26T02:35:51.664Z,82.70
2018-03-26T02:36:51.691Z,81.30
2018-03-26T02:37:51.710Z,74.50
2018-03-26T02:38:51.722Z,76.60
2018-03-26T02:39:51.748Z,81.30
2018-03-26T02:40:51.757Z,75.80
2018-03-26T02:41:51.782Z,75.40
2018-03-26T02:42:51.801Z,75.60
2018-03-26T02:43:51.821Z,80.00
2018-03-26T02:44:51.836Z,78.40
2018-03-26T02:45:51.858Z,75.70
2018-03-26T02:46:51.877Z,79.20
2018-03-26T02:47:51.896Z,81.20
2018-03-26T02:48:51.924Z,79.10
2018-03-26T02:49:51.938Z,80.80
2018-03-26T02:50:51.956Z,76.30
2018-03-26T02:51:51.980Z,76.90
2018-03-26T02:52:51.987Z,76.10
2018-03-26T02:53:52.005Z,81.80
2018-03-26T02:54:52.035Z,80.10
2018-03-26T02:55:52.043Z,78.90
2018-03-26T02:56:52.071Z,80.10
2018-03-26T02:57:52.081Z,80.40
2018-03-26T02:58:52.103Z,80.30
2018-03-26T02:59:52.125Z,79.50
2018-03-26T03:00:52.145Z,81.90
2018-03-26T03:01:52.164Z,78.90
2018-03-26T03:02:52.176Z,84.50
2018-03-26T03:03:52.209Z,83.80
2018-03-26T03:04:52.213Z,86.20
2018-03-26T03:05:52.235Z,81.60
2018-03-26T03:06:52.258Z,88.80
2018-03-26T03:07:52.278Z,86.50
2018-03-26T03:08:52.289Z,86.70
2018-03-26T03:09:52.314Z,86.90
2018-03-26T03:10:52.329Z,86.10
2018-03-26T03:11:52.345Z,87.10
2018-03-26T03:12:52.372Z,84.70
2018-03-26T03:13:52.391Z,83.80
2018-03-26T03:14:52.408Z,87.20
2018-03-26T03:15:52.429Z,90.70
2018-03-26T03:16:52.445Z,88.60
2018-03-26T03:17:52.460Z,86.60
2018-03-26T03:18:52.485Z,87.00
2018-03-26T03:19:52.504Z,93.50
2018-03-26T03:20:52.517Z,89.50
2018-03-26T03:21:52.539Z,88.80
2018-03-26T03:22:52.556Z,86.30
2018-03-26T03:23:52.577Z,89.40
2018-03-26T03:24:52.596Z,91.90
2018-03-26T03:25:52.612Z,89.90
2018-03-26T03:26:52.634Z,91.90
2018-03-26T03:27:52.651Z,91.00
2018-03-26T03:28:52.672Z,93.80
2018-03-26T03:29:52.689Z,95.30
2018-03-26T03:30:52.762Z,88.80
2018-03-26T03:31:52.724Z,91.50
2018-03-26T03:32:52.751Z,90.60
2018-03-26T03:33:52.761Z,89.10
2018-03-26T03:34:52.784Z,91.50
2018-03-26T03:35:52.805Z,92.60
2018-03-26T03:36:52.822Z,90.50
2018-03-26T03:37:52.843Z,91.00
2018-03-26T03:38:52.855Z,93.90
2018-03-26T03:39:52.876Z,92.90
2018-03-26T03:40:52.901Z,88.40
2018-03-26T03:41:52.910Z,87.80
2018-03-26T03:42:52.938Z,92.70
2018-03-26T03:43:52.954Z,89.20
2018-03-26T03:44:52.967Z,93.00
2018-03-26T03:45:52.989Z,89.50
2018-03-26T03:46:53.004Z,87.80
2018-03-26T03:47:53.033Z,93.40
2018-03-26T03:48:53.046Z,91.30
2018-03-26T03:49:53.066Z,91.40
2018-03-26T03:50:53.121Z,97.30
2018-03-26T03:51:53.099Z,89.80
2018-03-26T03:52:53.119Z,89.80
2018-03-26T03:53:53.136Z,93.90
2018-03-26T03:54:53.164Z,89.40
2018-03-26T03:55:53.180Z,91.90
2018-03-26T03:56:53.196Z,90.60
2018-03-26T03:57:53.220Z,92.30
2018-03-26T03:58:53.230Z,89.60
2018-03-26T03:59:53.253Z,91.10
2018-03-26T04:00:53.272Z,94.80
2018-03-26T04:01:53.291Z,91.60
2018-03-26T04:02:53.316Z,91.70
2018-03-26T04:03:53.330Z,91.90
2018-03-26T04:04:53.349Z,91.40
2018-03-26T04:05:53.363Z,91.60
2018-03-26T04:06:53.385Z,90.90
2018-03-26T04:07:53.408Z,92.70
2018-03-26T04:08:53.417Z,89.40
2018-03-26T04:09:53.443Z,89.80
2018-03-26T04:10:53.454Z,90.30
2018-03-26T04:11:53.481Z,93.70
2018-03-26T04:12:53.491Z,92.10
2018-03-26T04:13:53.515Z,89.20
2018-03-26T04:14:53.533Z,93.40
2018-03-26T04:15:53.548Z,90.70
2018-03-26T04:16:53.574Z,92.40
2018-03-26T04:17:53.613Z,92.80
2018-03-26T04:18:53.603Z,89.70
2018-03-26T04:19:53.629Z,89.40
2018-03-26T04:20:53.643Z,91.40
2018-03-26T04:21:53.666Z,89.60
2018-03-26T04:22:53.687Z,85.60
2018-03-26T04:23:53.698Z,88.50
2018-03-26T04:24:53.723Z,87.80
2018-03-26T04:25:53.734Z,82.00
2018-03-26T04:26:53.761Z,85.50
2018-03-26T04:27:53.777Z,86.50
2018-03-26T04:28:53.795Z,83.50
2018-03-26T04:29:53.811Z,79.20
2018-03-26T04:30:53.833Z,85.50
2018-03-26T04:31:53.849Z,78.80
2018-03-26T04:32:53.870Z,80.80
2018-03-26T04:33:53.890Z,77.10
2018-03-26T04:34:53.912Z,80.20
2018-03-26T04:35:53.922Z,79.90
2018-03-26T04:36:53.948Z,82.70
2018-03-26T04:37:53.961Z,76.40
2018-03-26T04:38:53.984Z,77.70
2018-03-26T04:39:54.005Z,81.80
2018-03-26T04:40:54.021Z,80.80
2018-03-26T04:41:54.042Z,84.80
2018-03-26T04:42:54.052Z,77.80
2018-03-26T04:43:54.076Z,80.80
2018-03-26T04:44:54.097Z,76.60
2018-03-26T04:45:54.108Z,76.60
2018-03-26T04:46:54.137Z,79.10
2018-03-26T04:47:54.157Z,80.60
2018-03-26T04:48:54.167Z,83.10
2018-03-26T04:49:54.192Z,76.70
2018-03-26T04:50:54.208Z,78.50
2018-03-26T04:51:54.224Z,78.60
2018-03-26T04:52:54.246Z,78.80
2018-03-26T04:53:54.260Z,78.90
2018-03-26T04:54:54.286Z,81.20
2018-03-26T04:55:54.349Z,76.10
2018-03-26T04:56:54.325Z,78.20
2018-03-26T04:57:54.334Z,73.50
2018-03-26T04:58:54.362Z,73.80
2018-03-26T04:59:54.378Z,74.70
2018-03-26T05:00:54.392Z,64.20
2018-03-26T05:01:54.421Z,68.40
2018-03-26T05:02:54.430Z,67.30
2018-03-26T05:03:54.451Z,68.80
2018-03-26T05:04:54.472Z,69.30
2018-03-26T05:05:54.489Z,69.00
2018-03-26T05:06:54.515Z,62.40
2018-03-26T05:07:54.526Z,68.60
2018-03-26T05:08:54.550Z,67.80
2018-03-26T05:09:54.571Z,63.90
2018-03-26T05:10:54.580Z,67.60
2018-03-26T05:11:54.607Z,67.00
2018-03-26T05:12:54.615Z,65.70
2018-03-26T05:13:54.636Z,66.40
2018-03-26T05:14:54.658Z,67.40
2018-03-26T05:15:54.674Z,64.60
2018-03-26T05:16:54.790Z,62.70
2018-03-26T05:17:54.714Z,62.90
2018-03-26T05:18:54.731Z,65.10
2018-03-26T05:19:54.752Z,64.40
2018-03-26T05:20:54.768Z,62.00
2018-03-26T05:21:54.830Z,60.00
2018-03-26T05:22:54.803Z,60.70
2018-03-26T05:23:54.831Z,60.10
2018-03-26T05:24:54.840Z,57.90
2018-03-26T05:25:54.859Z,61.00
2018-03-26T05:26:54.886Z,65.70
2018-03-26T05:27:54.896Z,56.50
2018-03-26T05:28:54.922Z,59.00
2018-03-26T05:29:54.938Z,58.50
2018-03-26T05:30:54.981Z,59.50
2018-03-26T05:31:54.977Z,58.60
2018-03-26T05:32:54.993Z,56.90
2018-03-26T05:33:55.012Z,57.20
2018-03-26T05:34:55.036Z,55.90
2018-03-26T05:35:55.049Z,55.10
2018-03-26T05:36:55.105Z,51.60
2018-03-26T05:37:55.084Z,53.80
2018-03-26T05:38:55.106Z,59.60
2018-03-26T05:39:55.126Z,53.20
2018-03-26T05:40:55.143Z,52.90
2018-03-26T05:41:55.167Z,55.70
2018-03-26T05:42:55.179Z,52.00
2018-03-26T05:43:55.199Z,52.80
2018-03-26T05:44:55.214Z,51.60
2018-03-26T05:45:55.235Z,53.00
2018-03-26T05:46:55.337Z,55.40
2018-03-26T05:47:55.280Z,56.00
2018-03-26T05:48:55.295Z,53.70
2018-03-26T05:49:55.315Z,49.50
2018-03-26T05:50:55.332Z,51.00
2018-03-26T05:51:55.347Z,47.10
2018-03-26T05:52:55.373Z,45.90
2018-03-26T05:53:55.392Z,49.10
2018-03-26T05:54:55.409Z,48.00
2018-03-26T05:55:55.423Z,49.70
2018-03-26T05:56:55.448Z,48.50
2018-03-26T05:57:55.459Z,48.50
2018-03-26T05:58:55.486Z,45.30
2018-03-26T05:59:55.506Z,46.10
2018-03-26T06:00:55.523Z,48.80
2018-03-26T06:01:55.538Z,47.30
2018-03-26T06:02:55.556Z,42.90
2018-03-26T06:03:55.572Z,44.30
2018-03-26T06:04:55.599Z,46.60
2018-03-26T06:05:55.613Z,44.60
2018-03-26T06:06:55.633Z,43.00
2018-03-26T06:07:55.656Z,41.30
2018-03-26T06:08:55.665Z,44.40
2018-03-26T06:09:55.684Z,42.40
2018-03-26T06:10:55.711Z,41.80
2018-03-26T06:11:55.724Z,43.30
2018-03-26T06:12:55.760Z,45.10
2018-03-26T06:13:55.767Z,42.30
2018-03-26T06:14:55.778Z,42.80
2018-03-26T06:15:55.805Z,40.60
2018-03-26T06:16:55.817Z,42.20
2018-03-26T06:17:55.841Z,45.20
2018-03-26T06:18:55.854Z,40.30
2018-03-26T06:19:55.874Z,46.00
2018-03-26T06:20:55.894Z,41.30
2018-03-26T06:21:55.913Z,46.60
2018-03-26T06:22:55.929Z,44.70
2018-03-26T06:23:55.952Z,47.90
2018-03-26T06:24:56.002Z,46.80
2018-03-26T06:25:55.986Z,44.30
2018-03-26T06:26:56.008Z,47.50
2018-03-26T06:27:56.023Z,45.50
2018-03-26T06:28:56.044Z,49.90
2018-03-26T06:29:56.063Z,46.30
2018-03-26T06:30:56.081Z,47.30
2018-03-26T06:31:56.100Z,44.60
2018-03-26T06:32:56.118Z,46.00
2018-03-26T06:33:56.134Z,47.90
2018-03-26T06:34:56.161Z,47.50
2018-03-26T06:35:56.177Z,46.70
2018-03-26T06:36:56.193Z,49.60
2018-03-26T06:37:56.215Z,49.00
2018-03-26T06:38:56.233Z,42.30
2018-03-26T06:39:56.247Z,46.40
2018-03-26T06:40:56.270Z,48.60
2018-03-26T06:41:56.289Z,44.80
2018-03-26T06:42:56.310Z,51.60
2018-03-26T06:43:56.326Z,47.20
2018-03-26T06:44:56.341Z,46.70
2018-03-26T06:45:56.361Z,44.90
2018-03-26T06:46:56.383Z,45.00
2018-03-26T06:47:56.402Z,48.90
2018-03-26T06:48:56.416Z,47.60
2018-03-26T06:49:56.438Z,46.50
2018-03-26T06:50:56.458Z,41.40
2018-03-26T06:51:56.481Z,42.30
2018-03-26T06:52:56.490Z,40.80
2018-03-26T06:53:56.516Z,42.90
2018-03-26T06:54:56.532Z,42.60
2018-03-26T06:55:56.548Z,40.50
2018-03-26T06:56:56.575Z,43.50
2018-03-26T06:57:56.588Z,45.00
2018-03-26T06:58:56.606Z,39.80
2018-03-26T06:59:56.635Z,41.70
2018-03-26T07:00:56.644Z,38.10
2018-03-26T07:01:56.667Z,39.30
2018-03-26T07:02:56.686Z,37.90
2018-03-26T07:03:56.701Z,40.40
2018-03-26T07:04:56.722Z,41.10
2018-03-26T07:05:56.746Z,39.20
2018-03-26T07:06:56.760Z,43.80
2018-03-26T07:07:56.778Z,41.90
2018-03-26T07:08:56.805Z,43.00
2018-03-26T07:09:56.818Z,39.10
2018-03-26T07:10:56.842Z,43.60
2018-03-26T07:11:56.863Z,43.90
2018-03-26T07:12:56.874Z,45.00
2018-03-26T07:13:56.903Z,40.90
2018-03-26T07:14:56.914Z,44.50
2018-03-26T07:15:56.935Z,43.40
2018-03-26T07:16:56.958Z,38.70
2018-03-26T07:17:56.972Z,42.30
2018-03-26T07:18:57.013Z,40.30
2018-03-26T07:19:57.019Z,42.50
2018-03-26T07:20:57.034Z,37.00
2018-03-26T07:21:57.053Z,42.00
2018-03-26T07:22:57.082Z,41.10
2018-03-26T07:23:57.094Z,46.40
2018-03-26T07:24:57.116Z,41.00
2018-03-26T07:25:57.138Z,43.70
2018-03-26T07:26:57.155Z,42.90
2018-03-26T07:27:57.178Z,41.90
2018-03-26T07:28:57.207Z,43.50
2018-03-26T07:29:57.215Z,42.30
2018-03-26T07:30:57.244Z,41.60
2018-03-26T07:31:57.262Z,39.60
2018-03-26T07:32:57.280Z,41.10
2018-03-26T07:33:57.305Z,40.40
2018-03-26T07:34:57.316Z,41.90
2018-03-26T07:35:57.341Z,42.00
2018-03-26T07:36:57.362Z,41.20
2018-03-26T07:37:57.379Z,43.80
2018-03-26T07:38:57.454Z,38.20
2018-03-26T07:39:57.421Z,38.70
2018-03-26T07:40:57.437Z,37.70
2018-03-26T07:41:57.458Z,40.40
2018-03-26T07:42:57.481Z,34.00
2018-03-26T07:43:57.501Z,35.90
2018-03-26T07:44:57.529Z,31.20
2018-03-26T07:45:57.556Z,33.70
2018-03-26T07:46:57.569Z,33.80
2018-03-26T07:47:57.595Z,30.70
2018-03-26T07:48:57.608Z,29.40
2018-03-26T07:49:57.635Z,28.50
2018-03-26T07:50:57.657Z,28.50
2018-03-26T07:51:57.711Z,27.50
2018-03-26T07:52:57.719Z,27.20
2018-03-26T07:53:57.728Z,27.60
2018-03-26T07:54:57.749Z,26.80
2018-03-26T07:55:57.775Z,25.70
2018-03-26T07:56:57.801Z,28.10
2018-03-26T07:57:57.822Z,30.00
2018-03-26T07:58:57.843Z,30.20
2018-03-26T07:59:57.875Z,30.20
2018-03-26T08:00:57.892Z,29.40
2018-03-26T08:01:57.922Z,26.10
2018-03-26T08:02:57.946Z,23.30
2018-03-26T08:03:57.974Z,24.00
2018-03-26T08:04:57.996Z,24.90
2018-03-26T08:05:58.021Z,26.20
2018-03-26T08:06:58.049Z,26.00
2018-03-26T08:07:58.072Z,24.20
2018-03-26T08:08:58.102Z,23.30
2018-03-26T08:09:58.126Z,25.70
2018-03-26T08:10:58.155Z,23.40
2018-03-26T08:11:58.180Z,25.00
2018-03-26T08:12:58.202Z,25.80
2018-03-26T08:13:58.253Z,23.90
2018-03-26T08:14:58.294Z,23.50
2018-03-26T08:15:58.363Z,22.70
2018-03-26T08:16:58.356Z,24.60
2018-03-26T08:17:58.381Z,20.90
2018-03-26T08:18:58.403Z,19.70
2018-03-26T08:19:58.423Z,22.20
2018-03-26T08:20:58.426Z,21.90
2018-03-26T08:21:58.453Z,20.30
2018-03-26T08:22:58.484Z,19.80
2018-03-26T08:23:58.511Z,20.90
2018-03-26T08:24:58.535Z,21.00
2018-03-26T08:25:58.561Z,20.50
2018-03-26T08:26:58.597Z,17.70
2018-03-26T08:27:58.617Z,18.10
2018-03-26T08:28:58.649Z,18.10
2018-03-26T08:29:58.676Z,18.70
2018-03-26T08:30:58.740Z,19.50
2018-03-26T08:31:58.732Z,17.60
2018-03-26T08:32:58.799Z,18.00
2018-03-26T08:33:58.802Z,18.10
2018-03-26T08:34:58.824Z,18.90
2018-03-26T08:35:58.849Z,17.70
2018-03-26T08:36:58.876Z,18.00
2018-03-26T08:37:58.909Z,17.80
2018-03-26T08:38:58.931Z,18.30
2018-03-26T08:39:58.962Z,17.40
2018-03-26T08:40:58.995Z,17.50
2018-03-26T08:41:59.026Z,17.80
2018-03-26T08:42:59.048Z,21.20
2018-03-26T08:43:59.084Z,17.30
2018-03-26T08:44:59.110Z,16.70
2018-03-26T08:45:59.141Z,17.60
2018-03-26T08:46:59.173Z,18.70
2018-03-26T08:47:59.198Z,17.80
2018-03-26T08:48:59.224Z,18.00
2018-03-26T08:49:59.377Z,17.80
2018-03-26T08:50:59.290Z,20.10
2018-03-26T08:51:59.318Z,18.50
2018-03-26T08:52:59.339Z,18.50
2018-03-26T08:53:59.380Z,17.90
2018-03-26T08:54:59.400Z,18.60
2018-03-26T08:55:59.429Z,17.60
2018-03-26T08:56:59.464Z,18.80
2018-03-26T08:57:59.487Z,17.80
2018-03-26T08:58:59.522Z,19.80
2018-03-26T08:59:59.553Z,19.40
2018-03-26T09:00:59.579Z,19.50
2018-03-26T09:01:59.613Z,19.40
2018-03-26T09:02:59.635Z,18.70
2018-03-26T09:03:59.667Z,18.30
2018-03-26T09:04:59.694Z,17.40
2018-03-26T09:05:59.732Z,17.50
2018-03-26T09:06:59.757Z,17.30
2018-03-26T09:07:59.796Z,18.10
2018-03-26T09:08:59.816Z,17.20
2018-03-26T09:09:59.846Z,18.30
2018-03-26T09:10:59.878Z,18.00
2018-03-26T09:11:59.932Z,17.20
2018-03-26T09:12:59.940Z,16.80
2018-03-26T09:13:59.967Z,17.50
2018-03-26T09:14:59.998Z,14.90
2018-03-26T09:16:00.032Z,14.00
2018-03-26T09:17:00.053Z,11.80
2018-03-26T09:18:00.083Z,11.70
2018-03-26T09:19:00.117Z,12.10
2018-03-26T09:20:00.145Z,12.70
2018-03-26T09:21:00.175Z,12.60
2018-03-26T09:22:00.208Z,12.80
2018-03-26T09:23:00.246Z,12.50
2018-03-26T09:24:00.274Z,11.70
2018-03-26T09:25:00.296Z,11.40
2018-03-26T09:26:00.339Z,11.90
2018-03-26T09:27:00.360Z,12.70
2018-03-26T09:28:00.387Z,11.50
2018-03-26T09:29:00.425Z,11.90
2018-03-26T09:30:00.453Z,11.50
2018-03-26T09:31:00.480Z,12.40
2018-03-26T09:32:00.518Z,12.00
2018-03-26T09:33:00.547Z,11.30
2018-03-26T09:34:00.573Z,10.90
2018-03-26T09:35:00.601Z,11.10
2018-03-26T09:36:00.641Z,11.60
2018-03-26T09:37:00.662Z,10.90
2018-03-26T09:38:00.699Z,11.30
2018-03-26T09:39:00.727Z,11.90
2018-03-26T09:40:00.754Z,11.80
2018-03-26T09:41:00.793Z,11.20
2018-03-26T09:42:00.823Z,12.00
2018-03-26T09:43:00.855Z,13.70
2018-03-26T09:44:00.887Z,11.30
2018-03-26T09:45:00.910Z,11.30
2018-03-26T09:46:00.942Z,11.30
2018-03-26T09:47:00.976Z,11.40
2018-03-26T09:48:01.021Z,11.10
2018-03-26T09:49:01.038Z,10.90
2018-03-26T09:50:01.068Z,10.60
2018-03-26T09:51:01.102Z,10.50
2018-03-26T09:52:01.130Z,9.60
2018-03-26T09:53:01.157Z,10.40
2018-03-26T09:54:01.190Z,10.30
2018-03-26T09:55:01.246Z,9.60
2018-03-26T09:56:01.254Z,9.90
2018-03-26T09:57:01.285Z,9.70
2018-03-26T09:58:01.319Z,10.20
2018-03-26T09:59:01.347Z,9.50
2018-03-26T10:00:01.378Z,10.20
2018-03-26T10:01:01.406Z,10.00
2018-03-26T10:02:01.441Z,9.80
2018-03-26T10:03:01.491Z,10.50
2018-03-26T10:04:01.498Z,10.20
2018-03-26T10:05:01.536Z,9.70
2018-03-26T10:06:01.568Z,8.60
2018-03-26T10:07:01.597Z,8.60
2018-03-26T10:08:01.630Z,8.40
2018-03-26T10:09:01.653Z,9.40
2018-03-26T10:10:01.690Z,8.20
2018-03-26T10:11:01.724Z,8.00
2018-03-26T10:12:01.751Z,8.80
2018-03-26T10:13:01.781Z,9.20
2018-03-26T10:14:01.813Z,9.60
2018-03-26T10:15:01.846Z,10.40
2018-03-26T10:16:01.875Z,9.80
2018-03-26T10:17:01.911Z,9.50
2018-03-26T10:18:01.992Z,9.90
2018-03-26T10:19:01.979Z,9.30
2018-03-26T10:20:02.026Z,9.40
2018-03-26T10:21:02.054Z,9.20
2018-03-26T10:22:02.069Z,9.70
2018-03-26T10:23:02.097Z,10.20
2018-03-26T10:24:02.144Z,9.00
2018-03-26T10:25:02.176Z,10.80
2018-03-26T10:26:02.289Z,9.00
2018-03-26T10:27:02.255Z,9.80
2018-03-26T10:28:02.316Z,8.90
2018-03-26T10:29:02.321Z,9.00
2018-03-26T10:30:02.367Z,8.80
2018-03-26T10:31:02.377Z,9.50
2018-03-26T10:32:02.458Z,9.30
2018-03-26T10:33:02.441Z,9.10
2018-03-26T10:34:02.502Z,12.00
2018-03-26T10:35:02.527Z,9.20
2018-03-26T10:36:02.521Z,10.40
2018-03-26T10:37:02.563Z,9.20
2018-03-26T10:38:02.586Z,9.10
2018-03-26T10:39:02.621Z,9.60
2018-03-26T10:40:02.675Z,8.90
2018-03-26T10:41:02.713Z,9.50
2018-03-26T10:42:02.696Z,9.40
2018-03-26T10:43:02.758Z,9.30
2018-03-26T10:44:02.760Z,9.00
2018-03-26T10:45:02.825Z,9.30
2018-03-26T10:46:02.893Z,8.90
2018-03-26T10:47:02.852Z,10.40
2018-03-26T10:48:02.885Z,8.30
2018-03-26T10:49:02.941Z,9.70
2018-03-26T10:50:02.960Z,10.80
2018-03-26T10:51:03.084Z,8.30
2018-03-26T10:52:03.051Z,8.90
2018-03-26T10:53:03.052Z,8.80
2018-03-26T10:54:03.073Z,8.30
2018-03-26T10:55:03.104Z,7.80
2018-03-26T10:56:03.165Z,7.90
2018-03-26T10:57:03.183Z,8.50
2018-03-26T10:58:03.198Z,8.70
2018-03-26T10:59:03.239Z,10.20
2018-03-26T11:00:03.278Z,8.10
2018-03-26T11:01:03.341Z,8.70
2018-03-26T11:02:03.324Z,9.00
2018-03-26T11:03:03.352Z,8.30
2018-03-26T11:04:03.465Z,7.60
2018-03-26T11:05:03.409Z,7.50
2018-03-26T11:06:03.439Z,7.20
2018-03-26T11:07:03.478Z,8.40
2018-03-26T11:08:03.502Z,8.20
2018-03-26T11:09:03.555Z,7.90
2018-03-26T11:10:03.576Z,8.80
2018-03-26T11:11:03.688Z,11.50
2018-03-26T11:12:03.648Z,30.50
2018-03-26T11:13:03.685Z,45.50
2018-03-26T11:14:03.700Z,9.00
2018-03-26T11:15:03.721Z,10.10
2018-03-26T11:16:03.833Z,9.90
2018-03-26T11:17:03.796Z,10.40
2018-03-26T11:18:03.824Z,8.30
2018-03-26T11:19:03.871Z,7.40
2018-03-26T11:20:03.905Z,8.60
2018-03-26T11:21:03.973Z,8.50
2018-03-26T11:22:03.961Z,7.10
2018-03-26T11:23:03.970Z,7.50
2018-03-26T11:24:04.021Z,7.00
2018-03-26T11:25:04.025Z,7.20
2018-03-26T11:26:04.055Z,8.00
2018-03-26T11:27:04.096Z,7.20
2018-03-26T11:28:04.174Z,7.30
2018-03-26T11:29:04.157Z,8.70
2018-03-26T11:30:04.179Z,7.30
2018-03-26T11:31:04.218Z,6.80
2018-03-26T11:32:04.251Z,10.10
2018-03-26T11:33:04.270Z,10.50
2018-03-26T11:34:04.309Z,7.90
2018-03-26T11:35:04.331Z,7.90
2018-03-26T11:36:04.366Z,7.90
2018-03-26T11:37:04.397Z,7.70
2018-03-26T11:38:04.431Z,9.20
2018-03-26T11:39:04.452Z,8.90
2018-03-26T11:40:04.492Z,7.30
2018-03-26T11:41:04.518Z,9.00
2018-03-26T11:42:04.547Z,10.20
2018-03-26T11:43:04.585Z,8.20
2018-03-26T11:44:04.610Z,8.80
2018-03-26T11:45:04.636Z,7.20
2018-03-26T11:46:04.680Z,7.40
2018-03-26T11:47:04.694Z,8.30
2018-03-26T11:48:04.732Z,8.00
2018-03-26T11:49:04.753Z,8.10
2018-03-26T11:50:04.782Z,7.20
2018-03-26T11:51:04.821Z,8.30
2018-03-26T11:52:04.843Z,6.50
2018-03-26T11:53:04.879Z,8.90
2018-03-26T11:54:04.902Z,7.70
2018-03-26T11:55:04.939Z,7.10
2018-03-26T11:56:04.967Z,7.70
2018-03-26T11:57:04.997Z,7.60
2018-03-26T11:58:05.021Z,6.50
2018-03-26T11:59:05.050Z,6.70
2018-03-26T12:00:05.088Z,7.50
2018-03-26T12:01:05.108Z,9.30
2018-03-26T12:02:05.178Z,6.50
2018-03-26T12:03:05.171Z,7.00
2018-03-26T12:04:05.199Z,7.70
2018-03-26T12:05:05.234Z,7.70
2018-03-26T12:06:05.261Z,8.80
2018-03-26T12:07:05.293Z,7.60
2018-03-26T12:08:05.325Z,7.60
2018-03-26T12:09:05.346Z,8.00
2018-03-26T12:10:05.384Z,7.90
2018-03-26T12:11:05.411Z,7.10
2018-03-26T12:12:05.439Z,9.60
2018-03-26T12:13:05.478Z,7.50
2018-03-26T12:14:05.496Z,8.10
2018-03-26T12:15:05.533Z,11.10
2018-03-26T12:16:05.559Z,9.10
2018-03-26T12:17:05.590Z,8.90
2018-03-26T12:18:05.616Z,10.40
2018-03-26T12:19:05.646Z,8.40
2018-03-26T12:20:05.679Z,10.00
2018-03-26T12:21:05.697Z,10.80
2018-03-26T12:22:05.732Z,8.40
2018-03-26T12:23:05.758Z,8.10
2018-03-26T12:24:05.799Z,7.10
2018-03-26T12:25:05.837Z,8.60
2018-03-26T12:26:05.895Z,12.10
2018-03-26T12:27:05.877Z,13.20
2018-03-26T12:28:05.918Z,10.20
2018-03-26T12:29:05.959Z,12.40
2018-03-26T12:30:05.974Z,19.00
2018-03-26T12:31:06.007Z,9.80
2018-03-26T12:32:06.014Z,8.60
2018-03-26T12:33:06.036Z,7.30
2018-03-26T12:34:06.075Z,9.20
2018-03-26T12:35:06.104Z,10.30
2018-03-26T12:36:06.136Z,10.20
2018-03-26T12:37:06.168Z,9.10
2018-03-26T12:38:06.213Z,7.30
2018-03-26T12:39:06.211Z,7.60
2018-03-26T12:40:06.236Z,8.40
2018-03-26T12:41:06.273Z,11.40
2018-03-26T12:42:06.304Z,7.10
2018-03-26T12:43:06.320Z,7.70
2018-03-26T12:44:06.364Z,6.80
2018-03-26T12:45:06.418Z,7.30
2018-03-26T12:46:06.429Z,8.10
2018-03-26T12:47:06.453Z,6.80
2018-03-26T12:48:06.503Z,43.40
2018-03-26T12:49:06.495Z,13.80
2018-03-26T12:50:06.533Z,8.50
2018-03-26T12:51:06.539Z,8.60
2018-03-26T12:52:06.585Z,78.10
2018-03-26T12:53:06.597Z,12.10
2018-03-26T12:54:06.632Z,8.40
2018-03-26T12:55:06.655Z,8.90
2018-03-26T12:56:06.675Z,8.80
2018-03-26T12:57:06.710Z,7.80
2018-03-26T12:58:06.776Z,9.70